createdAt,value
2018-01-30T00:01:06.233Z,29.3
2018-01-30T00:01:08.486Z,29.4
2018-01-30T00:02:08.264Z,24.3
2018-01-30T00:03:08.096Z,23.9
2018-01-30T00:04:38.162Z,27.1
2018-01-30T00:18:12.116Z,35.2
2018-01-30T00:18:15.049Z,35.3
2018-01-30T00:19:14.284Z,28.3
2018-01-30T00:20:14.275Z,28.2
2018-01-30T00:22:13.433Z,30
2018-01-30T00:29:06.710Z,29.3
2018-01-30T00:30:53.411Z,33.3
2018-01-30T00:32:08.115Z,33.9
2018-01-30T00:34:24.640Z,34.7
2018-01-30T00:35:41.183Z,34.7
2018-01-30T00:37:12.625Z,35
2018-01-30T00:37:30.052Z,35.3
2018-01-30T00:38:14.944Z,34
2018-01-30T00:39:14.803Z,29.6
2018-01-30T00:40:14.873Z,28.3
2018-01-30T00:41:14.392Z,28.3
2018-01-30T00:42:14.676Z,30.3
2018-01-30T00:43:14.398Z,28.9
2018-01-30T00:44:14.504Z,24.9
2018-01-30T00:45:14.325Z,24.1
2018-01-30T00:46:14.130Z,25.6
2018-01-30T00:47:14.017Z,28.6
2018-01-30T00:48:14.816Z,30.3
2018-01-30T00:49:13.851Z,31.8
2018-01-30T00:50:14.240Z,32.6
2018-01-30T00:51:14.333Z,33.2
2018-01-30T00:52:13.775Z,33.8
2018-01-30T00:53:13.584Z,34.3
2018-01-30T00:54:13.861Z,34.6
2018-01-30T00:55:14.114Z,34.8
2018-01-30T00:56:13.531Z,34.9
2018-01-30T00:57:13.545Z,35.2
2018-01-30T00:58:12.904Z,35.3
2018-01-30T00:59:13.162Z,35.4
2018-01-30T01:00:12.810Z,35.6
2018-01-30T01:01:12.917Z,32.3
2018-01-30T01:02:13.061Z,29.3
2018-01-30T01:03:13.022Z,28.3
2018-01-30T01:04:12.713Z,28.9
2018-01-30T01:05:12.506Z,30.3
2018-01-30T01:06:12.686Z,27
2018-01-30T01:07:12.558Z,24.6
2018-01-30T01:08:12.413Z,24
2018-01-30T01:09:12.830Z,26.7
2018-01-30T01:10:11.894Z,29.1
2018-01-30T01:11:12.368Z,30.7
2018-01-30T01:12:12.112Z,31.9
2018-01-30T01:13:12.108Z,32.7
2018-01-30T01:14:12.561Z,33.3
2018-01-30T01:15:12.090Z,33.9
2018-01-30T01:16:12.575Z,34.3
2018-01-30T01:17:11.699Z,34.5
2018-01-30T01:18:11.782Z,34.6
2018-01-30T01:19:11.724Z,34.8
2018-01-30T01:20:11.762Z,34.9
2018-01-30T01:21:11.631Z,34.9
2018-01-30T01:22:10.997Z,35
2018-01-30T01:23:11.511Z,35.1
2018-01-30T01:24:11.161Z,35.3
2018-01-30T01:25:11.456Z,31.1
2018-01-30T01:26:11.540Z,28.5
2018-01-30T01:27:11.033Z,27.7
2018-01-30T01:28:11.069Z,29.1
2018-01-30T01:29:10.974Z,30.3
2018-01-30T01:30:11.036Z,26
2018-01-30T01:31:11.424Z,24.3
2018-01-30T01:32:10.576Z,24
2018-01-30T01:33:10.486Z,27.4
2018-01-30T01:34:11.048Z,29.6
2018-01-30T01:35:10.260Z,31.1
2018-01-30T01:36:10.576Z,32.2
2018-01-30T01:37:10.436Z,32.9
2018-01-30T01:38:10.685Z,33.4
2018-01-30T01:39:10.114Z,34
2018-01-30T01:40:10.073Z,34.4
2018-01-30T01:41:10.186Z,34.6
2018-01-30T01:42:09.845Z,34.8
2018-01-30T01:43:09.723Z,34.9
2018-01-30T01:44:09.910Z,35.1
2018-01-30T01:45:09.595Z,35.2
2018-01-30T01:46:10.031Z,35.3
2018-01-30T01:47:09.792Z,35.3
2018-01-30T01:48:09.626Z,35.4
2018-01-30T01:49:09.549Z,30.5
2018-01-30T01:50:09.442Z,28.5
2018-01-30T01:51:09.526Z,27.9
2018-01-30T01:52:09.360Z,29.6
2018-01-30T01:53:09.160Z,29.9
2018-01-30T01:54:09.052Z,25.4
2018-01-30T01:55:09.218Z,24.1
2018-01-30T01:56:09.136Z,24.4
2018-01-30T01:57:08.869Z,27.9
2018-01-30T01:58:09.094Z,29.7
2018-01-30T01:59:08.438Z,31.2
2018-01-30T02:00:09.215Z,32.1
2018-01-30T02:01:08.532Z,32.8
2018-01-30T02:02:08.626Z,33.6
2018-01-30T02:03:08.801Z,34.3
2018-01-30T02:04:08.286Z,34.9
2018-01-30T02:05:08.438Z,35.2
2018-01-30T02:06:08.142Z,35.4
2018-01-30T02:07:08.279Z,35.5
2018-01-30T02:08:08.592Z,35.7
2018-01-30T02:09:08.470Z,35.8
2018-01-30T02:10:07.990Z,35.9
2018-01-30T02:11:07.732Z,36.1
2018-01-30T02:12:07.812Z,36.1
2018-01-30T02:13:08.560Z,31.2
2018-01-30T02:14:07.693Z,29.3
2018-01-30T02:15:07.455Z,28.6
2018-01-30T02:16:07.129Z,30.3
2018-01-30T02:17:07.808Z,30.1
2018-01-30T02:18:08.004Z,25.4
2018-01-30T02:19:07.389Z,24.3
2018-01-30T02:20:07.136Z,24.8
2018-01-30T02:21:07.095Z,28.2
2018-01-30T02:22:07.393Z,30
2018-01-30T02:23:07.651Z,31.4
2018-01-30T02:24:07.094Z,32.4
2018-01-30T02:25:07.995Z,33.1
2018-01-30T02:26:06.923Z,33.7
2018-01-30T02:27:07.007Z,34.1
2018-01-30T02:28:07.118Z,34.5
2018-01-30T02:29:06.549Z,34.6
2018-01-30T02:30:07.466Z,34.8
2018-01-30T02:31:06.699Z,34.9
2018-01-30T02:32:06.964Z,35.1
2018-01-30T02:33:06.401Z,33.4
2018-01-30T02:34:06.559Z,29.3
2018-01-30T02:35:06.372Z,28.1
2018-01-30T02:36:06.107Z,28.2
2018-01-30T02:37:06.019Z,30.3
2018-01-30T02:38:06.174Z,31.5
2018-01-30T02:39:06.216Z,32.6
2018-01-30T02:40:05.866Z,33.3
2018-01-30T02:41:05.779Z,33.8
2018-01-30T02:42:06.499Z,34.2
2018-01-30T02:43:05.751Z,34.6
2018-01-30T02:44:06.008Z,34.8
2018-01-30T02:45:05.555Z,34.9
2018-01-30T02:46:05.672Z,35.1
2018-01-30T02:47:05.556Z,35.1
2018-01-30T02:48:05.363Z,35.1
2018-01-30T02:49:05.245Z,35.1
2018-01-30T02:50:05.004Z,35
2018-01-30T02:51:05.286Z,35.1
2018-01-30T02:52:05.233Z,35.5
2018-01-30T02:53:05.171Z,35.9
2018-01-30T02:54:05.193Z,36.2
2018-01-30T02:55:05.071Z,36.4
2018-01-30T02:56:05.253Z,36.6
2018-01-30T02:57:04.831Z,36.8
2018-01-30T02:58:04.618Z,36.8
2018-01-30T02:59:04.653Z,31.5
2018-01-30T03:00:04.387Z,28.9
2018-01-30T03:01:04.917Z,28.2
2018-01-30T03:02:04.818Z,29.9
2018-01-30T03:03:04.806Z,30.3
2018-01-30T03:04:04.388Z,25.4
2018-01-30T03:05:04.485Z,24.1
2018-01-30T03:06:04.178Z,24.4
2018-01-30T03:07:04.388Z,28.1
2018-01-30T03:08:03.956Z,30.1
2018-01-30T03:09:03.885Z,31.5
2018-01-30T03:10:04.326Z,32.3
2018-01-30T03:11:03.866Z,32.9
2018-01-30T03:12:04.395Z,33.9
2018-01-30T03:13:03.895Z,34.7
2018-01-30T03:14:03.592Z,35.2
2018-01-30T03:15:03.622Z,35.6
2018-01-30T03:16:03.445Z,35.8
2018-01-30T03:17:03.232Z,35.9
2018-01-30T03:18:03.046Z,36.1
2018-01-30T03:19:03.400Z,36.1
2018-01-30T03:20:03.045Z,36.2
2018-01-30T03:21:03.120Z,36.4
2018-01-30T03:22:03.056Z,36.9
2018-01-30T03:23:03.315Z,37.3
2018-01-30T03:24:03.368Z,37.4
2018-01-30T03:25:02.926Z,37.2
2018-01-30T03:26:02.626Z,36.8
2018-01-30T03:27:02.887Z,36.6
2018-01-30T03:28:02.867Z,36.5
2018-01-30T03:29:03.100Z,35.6
2018-01-30T03:30:02.027Z,30
2018-01-30T03:31:02.354Z,28.1
2018-01-30T03:32:02.085Z,27.7
2018-01-30T03:33:02.415Z,29.9
2018-01-30T03:34:02.269Z,29.4
2018-01-30T03:35:02.185Z,25
2018-01-30T03:36:01.768Z,24
2018-01-30T03:37:02.625Z,25.1
2018-01-30T03:38:02.207Z,28.6
2018-01-30T03:39:01.891Z,30.4
2018-01-30T03:40:01.531Z,31.7
2018-01-30T03:41:02.227Z,32.4
2018-01-30T03:42:01.671Z,33.1
2018-01-30T03:43:01.691Z,33.9
2018-01-30T03:44:01.354Z,34.4
2018-01-30T03:45:01.463Z,34.8
2018-01-30T03:46:01.727Z,35.1
2018-01-30T03:47:01.031Z,35.3
2018-01-30T03:48:01.588Z,35.4
2018-01-30T03:49:01.316Z,35.5
2018-01-30T03:50:01.348Z,35.6
2018-01-30T03:51:01.264Z,35.6
2018-01-30T03:52:00.497Z,35.9
2018-01-30T03:53:01.372Z,36.3
2018-01-30T03:54:00.905Z,36.8
2018-01-30T03:55:00.876Z,37.1
2018-01-30T03:56:00.828Z,37.3
2018-01-30T03:57:00.779Z,37.5
2018-01-30T03:58:00.840Z,37.6
2018-01-30T03:59:00.484Z,37.6
2018-01-30T04:00:00.358Z,36.3
2018-01-30T04:01:00.084Z,30.6
2018-01-30T04:02:00.295Z,28.8
2018-01-30T04:03:00.580Z,28.6
2018-01-30T04:04:00.543Z,30.6
2018-01-30T04:05:00.100Z,29.3
2018-01-30T04:05:59.684Z,25.1
2018-01-30T04:06:59.873Z,24.3
2018-01-30T04:07:59.695Z,25.9
2018-01-30T04:08:59.550Z,29.1
2018-01-30T04:10:00.050Z,30.6
2018-01-30T04:10:59.487Z,32
2018-01-30T04:11:59.421Z,32.9
2018-01-30T04:13:00.009Z,33.5
2018-01-30T04:13:59.720Z,33.9
2018-01-30T04:14:59.408Z,34.3
2018-01-30T04:15:59.140Z,34.5
2018-01-30T04:16:59.287Z,34.7
2018-01-30T04:17:59.028Z,34.8
2018-01-30T04:18:58.879Z,34.9
2018-01-30T04:19:58.966Z,34.8
2018-01-30T04:20:58.902Z,34.9
2018-01-30T04:21:58.728Z,34.9
2018-01-30T04:22:59.270Z,35.2
2018-01-30T04:23:58.842Z,35.7
2018-01-30T04:24:58.432Z,36.1
2018-01-30T04:25:58.458Z,32
2018-01-30T04:26:58.507Z,28.9
2018-01-30T04:27:58.796Z,28.1
2018-01-30T04:28:58.159Z,29.3
2018-01-30T04:29:58.528Z,30.6
2018-01-30T04:30:58.643Z,26.1
2018-01-30T04:31:58.432Z,24.2
2018-01-30T04:32:58.444Z,23.9
2018-01-30T04:33:58.519Z,27.1
2018-01-30T04:34:58.083Z,29.3
2018-01-30T04:35:58.029Z,30.9
2018-01-30T04:36:57.981Z,31.8
2018-01-30T04:37:57.852Z,32.5
2018-01-30T04:38:57.942Z,33.3
2018-01-30T04:39:57.859Z,33.9
2018-01-30T04:40:57.463Z,34.5
2018-01-30T04:41:57.750Z,34.9
2018-01-30T04:42:57.574Z,35.1
2018-01-30T04:43:57.494Z,35.3
2018-01-30T04:44:57.526Z,35.4
2018-01-30T04:45:57.024Z,35.5
2018-01-30T04:46:57.215Z,35.6
2018-01-30T04:47:57.390Z,35.7
2018-01-30T04:48:56.743Z,36.2
2018-01-30T04:49:57.216Z,36.7
2018-01-30T04:50:57.018Z,37.1
2018-01-30T04:51:57.242Z,35.8
2018-01-30T04:52:56.725Z,30.7
2018-01-30T04:53:56.927Z,29.1
2018-01-30T04:54:56.446Z,28.9
2018-01-30T04:55:56.636Z,30.7
2018-01-30T04:56:56.560Z,28.8
2018-01-30T04:57:56.818Z,24.7
2018-01-30T04:58:56.345Z,23.9
2018-01-30T04:59:56.094Z,25.8
2018-01-30T05:00:56.445Z,28.9
2018-01-30T05:01:55.964Z,30.5
2018-01-30T05:02:56.045Z,31.9
2018-01-30T05:03:56.325Z,32.7
2018-01-30T05:04:55.740Z,33.3
2018-01-30T05:05:56.093Z,33.8
2018-01-30T05:06:55.406Z,34.1
2018-01-30T05:07:55.853Z,34.4
2018-01-30T05:08:55.896Z,34.6
2018-01-30T05:09:55.677Z,34.7
2018-01-30T05:10:55.122Z,34.8
2018-01-30T05:11:55.384Z,34.8
2018-01-30T05:12:55.461Z,34.9
2018-01-30T05:13:55.530Z,35.1
2018-01-30T05:14:55.450Z,35.3
2018-01-30T05:15:55.093Z,35.8
2018-01-30T05:16:55.234Z,36.3
2018-01-30T05:17:54.844Z,36.6
2018-01-30T05:18:55.121Z,32.3
2018-01-30T05:19:54.765Z,29.2
2018-01-30T05:20:55.229Z,28.3
2018-01-30T05:21:55.138Z,29.9
2018-01-30T05:22:54.745Z,31.1
2018-01-30T05:23:55.205Z,26.6
2018-01-30T05:24:54.731Z,24.7
2018-01-30T05:25:54.505Z,24.4
2018-01-30T05:26:54.521Z,27.8
2018-01-30T05:27:54.297Z,29.9
2018-01-30T05:28:53.946Z,31.4
2018-01-30T05:29:53.761Z,32.4
2018-01-30T05:30:54.468Z,33.1
2018-01-30T05:31:54.493Z,33.8
2018-01-30T05:32:53.927Z,34.3
2018-01-30T05:33:53.952Z,34.6
2018-01-30T05:34:53.747Z,34.9
2018-01-30T05:35:54.886Z,35.1
2018-01-30T05:36:53.804Z,35.1
2018-01-30T05:37:53.920Z,35.2
2018-01-30T05:38:53.335Z,35.2
2018-01-30T05:39:53.633Z,35.2
2018-01-30T05:40:53.393Z,35.2
2018-01-30T05:41:53.354Z,30.8
2018-01-30T05:42:53.575Z,28.5
2018-01-30T05:43:53.135Z,27.9
2018-01-30T05:44:52.954Z,29.4
2018-01-30T05:45:53.088Z,30.4
2018-01-30T05:46:53.300Z,25.9
2018-01-30T05:47:52.771Z,24.3
2018-01-30T05:48:52.787Z,24.1
2018-01-30T05:49:52.851Z,27.4
2018-01-30T05:50:52.453Z,29.3
2018-01-30T05:51:52.397Z,30.6
2018-01-30T05:52:52.840Z,31.4
2018-01-30T05:53:52.638Z,31.7
2018-01-30T05:54:52.472Z,31.9
2018-01-30T05:55:52.521Z,32.1
2018-01-30T05:56:52.171Z,32.6
2018-01-30T05:57:52.527Z,33
2018-01-30T05:58:52.217Z,33.7
2018-01-30T05:59:52.143Z,34.3
2018-01-30T06:00:52.743Z,34.8
2018-01-30T06:01:51.866Z,35.1
2018-01-30T06:02:52.182Z,35.3
2018-01-30T06:03:52.055Z,35.4
2018-01-30T06:04:51.696Z,36
2018-01-30T06:05:51.860Z,36.5
2018-01-30T06:06:51.649Z,36.9
2018-01-30T06:07:51.213Z,37.1
2018-01-30T06:08:51.968Z,37.4
2018-01-30T06:09:51.623Z,37.4
2018-01-30T06:10:51.347Z,37.1
2018-01-30T06:11:50.851Z,36.8
2018-01-30T06:12:51.278Z,36.4
2018-01-30T06:13:51.034Z,36.2
2018-01-30T06:14:50.881Z,36.1
2018-01-30T06:15:50.816Z,36.1
2018-01-30T06:16:51.050Z,36.1
2018-01-30T06:17:50.382Z,36.2
2018-01-30T06:18:51.440Z,34.5
2018-01-30T06:19:50.675Z,28.1
2018-01-30T06:20:50.770Z,25.9
2018-01-30T06:21:50.874Z,27
2018-01-30T06:22:50.490Z,30.9
2018-01-30T06:23:50.326Z,29.3
2018-01-30T06:24:50.013Z,25.7
2018-01-30T06:25:50.192Z,24.9
2018-01-30T06:26:50.355Z,27.5
2018-01-30T06:27:50.581Z,31.4
2018-01-30T06:28:49.888Z,29.8
2018-01-30T06:29:49.852Z,27.6
2018-01-30T06:30:49.252Z,26.9
2018-01-30T06:31:49.514Z,28.7
2018-01-30T06:32:49.806Z,31.1
2018-01-30T06:33:50.710Z,28.6
2018-01-30T06:34:49.610Z,26.5
2018-01-30T06:35:49.260Z,25.9
2018-01-30T06:36:49.952Z,27
2018-01-30T06:37:49.211Z,29.9
2018-01-30T06:38:49.946Z,28.4
2018-01-30T06:39:48.990Z,25.3
2018-01-30T06:40:49.678Z,24.7
2018-01-30T06:41:49.216Z,24.5
2018-01-30T06:42:49.291Z,25.9
2018-01-30T06:43:49.075Z,29
2018-01-30T06:44:48.931Z,27.1
2018-01-30T06:45:48.586Z,24.5
2018-01-30T06:46:48.478Z,23.9
2018-01-30T06:47:48.271Z,23.8
2018-01-30T06:48:48.254Z,24.8
2018-01-30T06:49:48.105Z,27.6
2018-01-30T06:50:47.907Z,27.3
2018-01-30T06:51:48.130Z,23.9
2018-01-30T06:52:48.497Z,23.3
2018-01-30T06:53:47.836Z,23.1
2018-01-30T06:54:47.661Z,23.6
2018-01-30T06:55:47.957Z,26.8
2018-01-30T06:56:47.459Z,27.3
2018-01-30T06:57:48.000Z,23.1
2018-01-30T06:58:47.754Z,22.3
2018-01-30T06:59:47.525Z,22.3
2018-01-30T07:00:47.292Z,22.5
2018-01-30T07:01:47.714Z,26
2018-01-30T07:02:47.001Z,27.5
2018-01-30T07:03:47.448Z,23.8
2018-01-30T07:04:47.071Z,22.3
2018-01-30T07:05:47.480Z,21.9
2018-01-30T07:06:46.933Z,24.1
2018-01-30T07:07:47.196Z,27.3
2018-01-30T07:08:46.886Z,25.6
2018-01-30T07:09:46.404Z,24
2018-01-30T07:10:46.446Z,23.6
2018-01-30T07:11:46.611Z,23.5
2018-01-30T07:12:46.221Z,23.5
2018-01-30T07:13:46.731Z,23.6
2018-01-30T07:14:46.332Z,23.8
2018-01-30T07:15:46.037Z,25.9
2018-01-30T07:16:46.217Z,29.2
2018-01-30T07:17:46.388Z,26.3
2018-01-30T07:18:45.786Z,22.9
2018-01-30T07:19:46.032Z,22.8
2018-01-30T07:20:45.666Z,27.3
2018-01-30T07:21:45.539Z,29.7
2018-01-30T07:22:45.405Z,25.7
2018-01-30T07:23:45.483Z,23.3
2018-01-30T07:24:45.337Z,23.1
2018-01-30T07:25:45.371Z,26.1
2018-01-30T07:26:45.880Z,28.8
2018-01-30T07:27:45.756Z,25.8
2018-01-30T07:28:44.981Z,24.4
2018-01-30T07:29:45.067Z,24.1
2018-01-30T07:30:45.139Z,24.1
2018-01-30T07:31:45.405Z,26.1
2018-01-30T07:32:45.665Z,28
2018-01-30T07:33:44.868Z,24.7
2018-01-30T07:34:45.007Z,22.4
2018-01-30T07:35:44.571Z,21.8
2018-01-30T07:36:45.050Z,21.9
2018-01-30T07:37:44.673Z,23.9
2018-01-30T07:38:44.501Z,26.6
2018-01-30T07:39:44.393Z,24.5
2018-01-30T07:40:44.779Z,22.2
2018-01-30T07:41:44.056Z,21.7
2018-01-30T07:42:44.126Z,21.7
2018-01-30T07:43:44.258Z,23.3
2018-01-30T07:44:43.518Z,26.1
2018-01-30T07:45:43.815Z,24.9
2018-01-30T07:46:43.995Z,21.8
2018-01-30T07:47:43.982Z,21.3
2018-01-30T07:48:43.559Z,21.3
2018-01-30T07:49:43.681Z,22.4
2018-01-30T07:50:43.343Z,25.6
2018-01-30T07:51:43.376Z,25.4
2018-01-30T07:52:43.119Z,21.4
2018-01-30T07:53:42.991Z,20.8
2018-01-30T07:54:43.160Z,20.8
2018-01-30T07:55:42.777Z,21.7
2018-01-30T07:56:42.900Z,25.2
2018-01-30T07:57:42.807Z,26.1
2018-01-30T07:58:43.162Z,21.4
2018-01-30T07:59:42.441Z,20.4
2018-01-30T08:00:42.947Z,20.4
2018-01-30T08:01:42.496Z,20.9
2018-01-30T08:02:42.300Z,24.6
2018-01-30T08:03:42.407Z,26.3
2018-01-30T08:04:42.210Z,21.9
2018-01-30T08:05:42.398Z,20.4
2018-01-30T08:06:41.876Z,20.4
2018-01-30T08:07:42.148Z,20.8
2018-01-30T08:08:41.889Z,24.1
2018-01-30T08:09:41.981Z,26.4
2018-01-30T08:10:42.082Z,22.4
2018-01-30T08:11:41.991Z,20.7
2018-01-30T08:12:41.900Z,20.6
2018-01-30T08:13:42.203Z,20.8
2018-01-30T08:14:41.291Z,23.8
2018-01-30T08:15:41.692Z,26.7
2018-01-30T08:16:41.099Z,23.8
2018-01-30T08:17:41.171Z,20.9
2018-01-30T08:18:40.924Z,20.6
2018-01-30T08:19:41.704Z,20.8
2018-01-30T08:20:41.478Z,23.3
2018-01-30T08:21:40.866Z,26.4
2018-01-30T08:22:40.855Z,24.7
2018-01-30T08:23:40.927Z,21.4
2018-01-30T08:25:40.954Z,21.1
2018-01-30T08:26:41.458Z,22.8
2018-01-30T08:27:40.357Z,26.1
2018-01-30T08:28:40.370Z,25.3
2018-01-30T08:29:40.682Z,22.3
2018-01-30T08:30:40.925Z,21.8
2018-01-30T08:31:40.008Z,21.7
2018-01-30T08:32:40.040Z,22.5
2018-01-30T08:33:40.829Z,25.9
2018-01-30T08:34:39.792Z,26.2
2018-01-30T08:35:40.129Z,22.8
2018-01-30T08:36:40.788Z,21.9
2018-01-30T08:37:39.519Z,21.9
2018-01-30T08:38:39.787Z,22.4
2018-01-30T08:39:39.852Z,25.8
2018-01-30T08:40:39.700Z,26.9
2018-01-30T08:41:39.340Z,22.8
2018-01-30T08:42:39.604Z,21.6
2018-01-30T08:43:39.447Z,21.5
2018-01-30T08:44:39.107Z,21.6
2018-01-30T08:45:38.841Z,25.2
2018-01-30T08:46:38.977Z,27.1
2018-01-30T08:47:38.778Z,23.4
2018-01-30T08:48:38.663Z,22
2018-01-30T08:49:38.886Z,21.8
2018-01-30T08:50:39.084Z,21.9
2018-01-30T08:51:38.975Z,24
2018-01-30T08:52:38.760Z,27
2018-01-30T08:53:38.285Z,25.1
2018-01-30T08:54:38.395Z,22.6
2018-01-30T08:55:38.559Z,22.1
2018-01-30T08:56:38.074Z,22.1
2018-01-30T08:57:38.161Z,23.2
2018-01-30T08:58:37.919Z,26.6
2018-01-30T08:59:37.905Z,26.7
2018-01-30T09:00:38.028Z,22.8
2018-01-30T09:01:38.272Z,22
2018-01-30T09:02:37.722Z,22
2018-01-30T09:03:37.792Z,22.7
2018-01-30T09:04:37.445Z,26.3
2018-01-30T09:05:37.733Z,27.4
2018-01-30T09:06:37.229Z,23.4
2018-01-30T09:07:37.762Z,22.4
2018-01-30T09:08:37.372Z,22.4
2018-01-30T09:09:37.691Z,22.6
2018-01-30T09:10:37.199Z,25.9
2018-01-30T09:11:37.421Z,27.6
2018-01-30T09:12:37.366Z,24.1
2018-01-30T09:13:36.933Z,22.8
2018-01-30T09:14:37.498Z,22.6
2018-01-30T09:15:36.723Z,22.7
2018-01-30T09:16:36.762Z,25.6
2018-01-30T09:17:36.987Z,27.8
2018-01-30T09:18:36.902Z,24.3
2018-01-30T09:19:36.445Z,22.6
2018-01-30T09:20:36.720Z,22.5
2018-01-30T09:21:36.274Z,22.6
2018-01-30T09:22:36.359Z,22.8
2018-01-30T09:23:36.464Z,25.8
2018-01-30T09:24:36.319Z,28
2018-01-30T09:25:36.632Z,24.4
2018-01-30T09:27:36.334Z,22.4
2018-01-30T09:28:35.927Z,22.6
2018-01-30T09:29:36.166Z,25.1
2018-01-30T09:30:36.476Z,27.7
2018-01-30T09:31:35.616Z,25.2
2018-01-30T09:32:35.757Z,23.4
2018-01-30T09:33:35.534Z,23.1
2018-01-30T09:34:35.705Z,23.1
2018-01-30T09:35:35.445Z,25
2018-01-30T09:36:35.487Z,27.8
2018-01-30T09:37:36.221Z,26.2
2018-01-30T09:38:35.202Z,23.1
2018-01-30T09:39:35.751Z,22.7
2018-01-30T09:40:35.104Z,22.8
2018-01-30T09:41:35.166Z,24.3
2018-01-30T09:42:35.061Z,27.5
2018-01-30T09:43:35.027Z,27.3
2018-01-30T09:44:35.254Z,23.5
2018-01-30T09:45:34.775Z,22.9
2018-01-30T09:46:34.858Z,22.9
2018-01-30T09:47:34.911Z,23.1
2018-01-30T09:48:34.713Z,23.1
2018-01-30T09:49:34.700Z,24.7
2018-01-30T09:50:34.645Z,27.5
2018-01-30T09:51:34.073Z,26.4
2018-01-30T09:52:34.221Z,23.1
2018-01-30T09:53:34.306Z,22.7
2018-01-30T09:54:34.448Z,22.8
2018-01-30T09:55:33.753Z,23.9
2018-01-30T09:56:33.886Z,27.4
2018-01-30T09:57:33.920Z,27.9
2018-01-30T09:58:33.960Z,24.6
2018-01-30T09:59:33.867Z,23.9
2018-01-30T10:00:33.837Z,23.8
2018-01-30T10:01:34.338Z,26.1
2018-01-30T10:02:33.660Z,28.9
2018-01-30T10:03:33.499Z,26.2
2018-01-30T10:04:33.661Z,23.2
2018-01-30T10:05:33.435Z,22.8
2018-01-30T10:06:33.736Z,22.9
2018-01-30T10:07:33.602Z,24.6
2018-01-30T10:08:33.295Z,27.6
2018-01-30T10:09:33.234Z,26.8
2018-01-30T10:10:33.358Z,23.9
2018-01-30T10:11:33.238Z,23.3
2018-01-30T10:12:32.999Z,24
2018-01-30T10:13:33.186Z,26.9
2018-01-30T10:14:32.992Z,26.8
2018-01-30T10:15:32.851Z,23.7
2018-01-30T10:16:32.929Z,22.9
2018-01-30T10:17:32.407Z,23.1
2018-01-30T10:18:32.693Z,26.3
2018-01-30T10:19:32.921Z,27.2
2018-01-30T10:20:32.850Z,23.6
2018-01-30T10:21:32.647Z,22.8
2018-01-30T10:22:32.216Z,23.5
2018-01-30T10:23:32.723Z,26.9
2018-01-30T10:24:32.190Z,27.3
2018-01-30T10:25:31.971Z,22.5
2018-01-30T10:26:32.172Z,21.4
2018-01-30T10:27:32.105Z,23.7
2018-01-30T10:28:31.676Z,27.6
2018-01-30T10:29:32.013Z,27.1
2018-01-30T10:30:31.951Z,23.3
2018-01-30T10:31:31.690Z,22.6
2018-01-30T10:32:31.625Z,25.2
2018-01-30T10:33:31.431Z,28.4
2018-01-30T10:34:31.407Z,26.9
2018-01-30T10:35:31.652Z,24.3
2018-01-30T10:36:31.772Z,23.8
2018-01-30T10:37:31.686Z,26.1
2018-01-30T10:38:31.092Z,28.9
2018-01-30T10:39:31.200Z,26.7
2018-01-30T10:40:30.838Z,24.9
2018-01-30T10:41:31.369Z,24.5
2018-01-30T10:42:31.780Z,26.1
2018-01-30T10:43:30.874Z,28.9
2018-01-30T10:44:30.803Z,27.3
2018-01-30T10:45:30.809Z,24.9
2018-01-30T10:46:30.516Z,24.4
2018-01-30T10:47:30.789Z,24.3
2018-01-30T10:48:30.395Z,25.3
2018-01-30T10:49:30.560Z,28.5
2018-01-30T10:50:30.296Z,28.6
2018-01-30T10:51:30.896Z,25.6
2018-01-30T10:52:29.966Z,24.9
2018-01-30T10:53:29.730Z,24.6
2018-01-30T10:54:30.039Z,25.2
2018-01-30T10:55:29.768Z,28.4
2018-01-30T10:56:30.284Z,29.3
2018-01-30T10:57:30.233Z,26
2018-01-30T10:58:29.484Z,25.1
2018-01-30T10:59:29.542Z,24.8
2018-01-30T11:00:30.236Z,24.7
2018-01-30T11:01:29.798Z,24.9
2018-01-30T11:02:29.551Z,28
2018-01-30T11:03:29.428Z,29.6
2018-01-30T11:04:29.377Z,26.4
2018-01-30T11:05:29.149Z,25.2
2018-01-30T11:06:29.019Z,24.9
2018-01-30T11:07:29.004Z,24.8
2018-01-30T11:08:29.296Z,24.8
2018-01-30T11:09:29.519Z,27.3
2018-01-30T11:10:28.726Z,29.6
2018-01-30T11:11:29.199Z,26.1
2018-01-30T11:12:28.624Z,24.8
2018-01-30T11:13:28.349Z,24.5
2018-01-30T11:14:28.735Z,24.4
2018-01-30T11:15:28.516Z,24.3
2018-01-30T11:16:28.826Z,26.8
2018-01-30T11:17:28.193Z,29.5
2018-01-30T11:18:28.651Z,26.6
2018-01-30T11:19:28.789Z,24.9
2018-01-30T11:20:28.162Z,24.5
2018-01-30T11:21:28.181Z,24.4
2018-01-30T11:22:28.465Z,26.2
2018-01-30T11:23:27.866Z,29.2
2018-01-30T11:24:28.548Z,28.4
2018-01-30T11:25:28.059Z,25.3
2018-01-30T11:26:27.902Z,24.6
2018-01-30T11:27:27.761Z,24.5
2018-01-30T11:28:27.492Z,25.4
2018-01-30T11:29:27.726Z,28.8
2018-01-30T11:30:28.281Z,29.3
2018-01-30T11:31:27.461Z,26.3
2018-01-30T11:32:27.406Z,25.4
2018-01-30T11:33:27.685Z,25.1
2018-01-30T11:34:27.294Z,25.3
2018-01-30T11:36:56.214Z,28.4
2018-01-30T11:36:58.774Z,28.8
2018-01-30T11:37:58.092Z,25.2
2018-01-30T11:38:58.929Z,24.6
2018-01-30T11:39:58.114Z,24.4
2018-01-30T11:40:58.468Z,26
2018-01-30T11:41:57.846Z,29.2
2018-01-30T11:42:58.278Z,28.5
2018-01-30T11:43:57.970Z,25.3
2018-01-30T11:44:57.934Z,24.8
2018-01-30T11:45:57.856Z,24.6
2018-01-30T11:46:57.819Z,25.5
2018-01-30T11:47:57.697Z,28.8
2018-01-30T11:48:57.514Z,29.4
2018-01-30T11:49:57.646Z,25.8
2018-01-30T11:50:57.181Z,25
2018-01-30T11:51:57.342Z,24.8
2018-01-30T11:53:57.173Z,28.4
2018-01-30T11:54:57.082Z,29.8
2018-01-30T11:55:57.066Z,26.2
2018-01-30T11:56:57.469Z,25.2
2018-01-30T11:57:56.576Z,24.9
2018-01-30T11:58:56.786Z,24.9
2018-01-30T11:59:56.577Z,28
2018-01-30T12:00:56.743Z,30.1
2018-01-30T12:01:56.752Z,26.4
2018-01-30T12:02:56.620Z,25.1
2018-01-30T12:03:56.941Z,24.8
2018-01-30T12:04:56.810Z,24.8
2018-01-30T12:05:56.349Z,24.8
2018-01-30T12:06:56.516Z,24.7
2018-01-30T12:07:55.746Z,24.8
2018-01-30T12:08:56.561Z,25.1
2018-01-30T12:09:55.797Z,25.1
2018-01-30T12:10:55.714Z,25
2018-01-30T12:11:55.760Z,24.9
2018-01-30T12:12:55.695Z,24.8
2018-01-30T12:13:55.498Z,24.7
2018-01-30T12:14:55.593Z,26.9
2018-01-30T12:15:55.443Z,32.5
2018-01-30T12:16:55.499Z,31.2
2018-01-30T12:17:55.375Z,28.4
2018-01-30T12:18:55.606Z,27.4
2018-01-30T12:19:55.062Z,28.3
2018-01-30T12:20:54.977Z,31.4
2018-01-30T12:21:55.135Z,30.2
2018-01-30T12:22:54.694Z,26.4
2018-01-30T12:23:55.123Z,25.6
2018-01-30T12:24:54.682Z,25.5
2018-01-30T12:25:54.668Z,25.6
2018-01-30T12:26:54.360Z,27.4
2018-01-30T12:27:54.591Z,30.2
2018-01-30T12:28:54.409Z,28.2
2018-01-30T12:29:54.396Z,26.1
2018-01-30T12:30:54.109Z,25.6
2018-01-30T12:31:54.090Z,25.4
2018-01-30T12:32:54.157Z,25.3
2018-01-30T12:33:53.818Z,26.3
2018-01-30T12:34:53.900Z,29.1
2018-01-30T12:35:53.722Z,28.6
2018-01-30T12:36:53.921Z,25.4
2018-01-30T12:37:53.916Z,24.9
2018-01-30T12:38:53.706Z,24.8
2018-01-30T12:39:54.081Z,24.7
2018-01-30T12:40:53.671Z,25.3
2018-01-30T12:41:53.485Z,28.2
2018-01-30T12:42:53.472Z,28.7
2018-01-30T12:43:53.149Z,25.3
2018-01-30T12:44:53.159Z,24.6
2018-01-30T12:45:53.197Z,24.4
2018-01-30T12:46:52.998Z,24.4
2018-01-30T12:47:52.958Z,24.4
2018-01-30T12:48:53.468Z,24.4
2018-01-30T12:49:53.046Z,25.3
2018-01-30T12:50:52.518Z,29.7
2018-01-30T12:51:52.504Z,33
2018-01-30T12:52:52.443Z,29.8
2018-01-30T12:53:52.334Z,28.1
2018-01-30T12:54:52.706Z,26
2018-01-30T12:55:52.082Z,30.2
2018-01-30T12:56:51.906Z,31.7
2018-01-30T12:57:52.258Z,27.5
2018-01-30T12:58:51.839Z,26.4
2018-01-30T12:59:52.195Z,26.2
2018-01-30T13:00:51.922Z,26.1
2018-01-30T13:01:52.044Z,26.1
2018-01-30T13:02:52.102Z,28.8
2018-01-30T13:03:51.666Z,30.6
2018-01-30T13:04:51.551Z,26.8
2018-01-30T13:05:51.395Z,25.6
2018-01-30T13:06:51.762Z,25.3
2018-01-30T13:07:51.572Z,25.2
2018-01-30T13:08:51.586Z,25.2
2018-01-30T13:09:51.186Z,27.6
2018-01-30T13:10:50.992Z,30.1
2018-01-30T13:11:51.036Z,26.7
2018-01-30T13:12:51.611Z,25.2
2018-01-30T13:13:50.845Z,24.9
2018-01-30T13:14:50.583Z,24.9
2018-01-30T13:15:51.603Z,24.9
2018-01-30T13:16:50.814Z,26.8
2018-01-30T13:17:50.614Z,29.5
2018-01-30T13:18:50.464Z,27
2018-01-30T13:19:50.475Z,25.1
2018-01-30T13:20:50.170Z,24.7
2018-01-30T13:21:50.526Z,24.6
2018-01-30T13:22:50.230Z,24.6
2018-01-30T13:23:50.085Z,26.1
2018-01-30T13:24:50.153Z,28.9
2018-01-30T13:25:49.692Z,27.7
2018-01-30T13:26:50.105Z,25.2
2018-01-30T13:27:49.685Z,24.6
2018-01-30T13:28:50.100Z,24.5
2018-01-30T13:29:49.886Z,25.4
2018-01-30T13:30:49.821Z,28.6
2018-01-30T13:31:49.462Z,28.8
2018-01-30T13:32:49.672Z,25.5
2018-01-30T13:33:49.181Z,24.8
2018-01-30T13:34:49.112Z,24.6
2018-01-30T13:35:49.367Z,24.9
2018-01-30T13:36:50.029Z,28.1
2018-01-30T13:37:48.773Z,29.1
2018-01-30T13:38:49.473Z,25.5
2018-01-30T13:39:48.620Z,24.7
2018-01-30T13:40:48.925Z,24.5
2018-01-30T13:41:48.617Z,24.6
2018-01-30T13:42:49.110Z,27.5
2018-01-30T13:43:48.867Z,29.6
2018-01-30T13:44:48.219Z,26